• Join FlightAware (Why Join?)
  • Login
  • US Flag 
03:16PM EDT


 

Airport Tracker/Info


-or-


 

Live Flight TrackerFlight Track Log ✈ UAL4678 ✈ 07-Oct-2013 ✈ KORD - KTYS

Flight Track Log - Related Links

Times and Time Zones

All times are in EDT time to prevent confusion due to time zone crossing. See the UAL4678 flight status page for this flight to view local times or setup timezone preferences in your user account.

Time Position Orientation Groundspeed Altitude Reporting Facility
EDT Latitude Longitude Course Direction KTS MPH feet Rate Location/Type
10:09PM 41.9167 -87.9000 169° South 179 206 2,800  Level Chicago TRACON
10:10PM 41.8500 -87.8667 160° South 249 287 4,500 1,500 Climbing Chicago TRACON
10:11PM 41.8125 -87.8375 150° Southeast 232 267 5,500 1,920 Climbing Chicago Center
10:12PM 41.5891 -87.6335 180° South  Level Estimated
10:12PM 41.7414 -87.7889 153° Southeast 274 315 7,700  Level Chicago Center
10:13PM 41.4909 -87.5657 169° South  Level Estimated
10:13PM 41.6669 -87.7361 152° Southeast 294 338 9,700  Level Chicago Center
10:14PM 41.3816 -87.5435 171° South  Level FlightAware Approximate
10:14PM 41.5869 -87.6831 154° Southeast 312 359 11,400  Level Chicago Center
10:15PM 41.2873 -87.4780 169° South  Level Estimated
10:15PM 41.5042 -87.6256 153° Southeast 328 377 13,400  Level Chicago Center
10:16PM 41.4156 -87.5728 156° South 344 396 14,400 1,020 Climbing Chicago Center
10:17PM 41.3122 -87.5539 172° South 372 428 15,500 1,020 Climbing Chicago Center
10:18PM 41.2053 -87.5342 172° South 382 440 16,500 960 Climbing Chicago Center
10:19PM 41.0972 -87.5047 168° South 394 453 17,500 1,020 Climbing Chicago Center
10:20PM 40.9875 -87.4756 169° South 400 460 18,600 1,200 Climbing Chicago Center
10:21PM 40.8564 -87.4403 168° South 401 461 20,000 1,140 Climbing Chicago Center
10:22PM 40.7442 -87.4122 169° South 408 470 21,000 840 Climbing Chicago Center
10:23PM 40.6347 -87.3569 159° South 416 479 21,800 780 Climbing Chicago Center
10:24PM 40.5300 -87.2794 151° Southeast 431 496 22,700 960 Climbing Chicago Center
10:25PM 40.4175 -87.1956 150° Southeast 434 499 23,800 1,020 Climbing Chicago Center
10:26PM 40.3119 -87.1178 151° Southeast 435 501 24,800 1,080 Climbing Chicago Center
10:27PM 40.2069 -87.0397 150° Southeast 436 502 26,000 1,080 Climbing Chicago Center
10:28PM 40.1047 -86.9642 151° Southeast 426 490 27,100 1,080 Climbing Chicago Center
10:29PM 40.0219 -86.9033 151° Southeast 423 487 28,100 1,200 Climbing Indianapolis Center
10:30PM 39.9022 -86.8161 151° Southeast 416 479 29,500 1,140 Climbing Indianapolis Center
10:31PM 39.8036 -86.7442 151° Southeast 411 473 30,500 900 Climbing Indianapolis Center
10:32PM 39.7086 -86.6617 146° Southeast 423 487 31,400 780 Climbing Indianapolis Center
10:33PM 39.6483 -86.5303 121° Southeast 426 490 32,200 780 Climbing Indianapolis Center
10:34PM 39.5894 -86.3969 120° Southeast 432 497 33,000 360 Climbing Indianapolis Center
10:35PM 39.5303 -86.2581 119° Southeast 447 514 33,000  Level Indianapolis Center
10:36PM 39.4519 -86.0808 120° Southeast 476 548 33,000  Level Indianapolis Center
10:37PM 39.3867 -85.9333 120° Southeast 477 549 33,000  Level Indianapolis Center
10:38PM 39.2864 -85.8325 142° Southeast 464 534 33,000  Level Indianapolis Center
10:39PM 39.1714 -85.7642 155° Southeast 457 526 33,000  Level Indianapolis Center
10:40PM 39.0558 -85.6956 155° Southeast 457 526 33,000  Level Indianapolis Center
10:41PM 38.9378 -85.6247 155° Southeast 465 535 33,000  Level Indianapolis Center
10:42PM 38.8186 -85.5531 155° Southeast 473 544 33,000  Level Indianapolis Center
10:43PM 38.7003 -85.4836 155° Southeast 471 542 33,000  Level Indianapolis Center
10:44PM 38.5678 -85.4047 155° Southeast 465 535 33,000  Level Indianapolis Center
10:46PM 38.4494 -85.3358 155° Southeast 464 534 33,000  Level Indianapolis Center
10:47PM 38.3319 -85.2656 155° Southeast 463 533 33,000  Level Indianapolis Center
10:48PM 38.2044 -85.1925 156° South 465 535 33,000  Level Indianapolis Center
10:49PM 38.0875 -85.1244 155° Southeast 464 534 33,000  Level Indianapolis Center
10:50PM 37.9725 -85.0547 154° Southeast 460 529 33,000  Level Indianapolis Center
10:51PM 37.8539 -84.9878 156° South 463 533 33,000  Level Indianapolis Center
10:52PM 37.7375 -84.9203 155° Southeast 461 531 33,000  Level Indianapolis Center
10:53PM 37.6219 -84.8525 155° Southeast 457 526 33,000 -540 Level Indianapolis Center
10:54PM 37.5053 -84.7894 157° South 455 524 31,900 -1,380 Descending Indianapolis Center
10:55PM 37.3733 -84.7122 155° Southeast 450 518 30,200 -1,620 Descending Indianapolis Center
10:56PM 37.2586 -84.6481 156° South 450 518 28,700 -1,560 Descending Indianapolis Center
10:57PM 37.1450 -84.5831 155° Southeast 450 518 27,100 -1,920 Descending Indianapolis Center
10:58PM 37.0383 -84.5231 156° South 446 513 24,900 -2,400 Descending Indianapolis Center
10:59PM 36.9183 -84.4511 154° Southeast 452 520 22,300 -2,640 Descending Indianapolis Center
11:00PM 36.8342 -84.3433 134° Southeast 440 506 19,500 -2,400 Descending Indianapolis Center
11:01PM 36.7467 -84.2667 145° Southeast 396 456 17,400 -2,100 Descending Indianapolis Center
11:02PM 36.6464 -84.2225 161° South 383 441 15,300 -2,160 Descending Indianapolis Center
11:03PM 36.5256 -84.1692 160° South 392 451 13,000 -1,980 Descending Indianapolis Center
11:04PM 36.4231 -84.1236 160° South 391 450 11,300 -960 Descending Indianapolis Center
11:05PM 36.3239 -84.0800 160° South 383 441 11,100 -300 Descending Indianapolis Center
11:06PM 36.2289 -84.0375 160° South 372 428 10,700 -780 Descending Indianapolis Center
11:07PM 36.1478 -84.0178 169° South 322 371 9,600 -1,080 Descending Indianapolis Center
11:08PM 36.0692 -84.0256 185° South 285 328 8,500 -1,140 Descending Indianapolis Center
11:09PM 35.9897 -84.0353 186° South 285 328 7,300 -1,560 Descending Indianapolis Center
11:10PM 35.9150 -84.0472 187° South 275 316 5,400 -1,680 Descending Indianapolis Center
11:11PM 35.8350 -84.0694 193° South 256 295 3,700 -1,260 Descending Atlanta Center
11:12PM 35.7767 -84.1003 203° Southwest 235 270 2,700 -600 Descending Atlanta Center
11:13PM 35.7350 -84.0847 163° South 182 209 2,600 -300 Descending Atlanta Center
11:14PM 35.7642 -84.0567 38° Northeast 56 64 2,100 -540 Descending Atlanta Center